sensor_id;sensor_type;location;lat;lon;timestamp;P1;durP1;ratioP1;P2;durP2;ratioP2
52926;SDS011;40783;49.710;8.842;2022-07-06T00:00:10;3.28;;;1.58;;
52926;SDS011;40783;49.710;8.842;2022-07-06T00:05:03;3.75;;;1.92;;
52926;SDS011;40783;49.710;8.842;2022-07-06T00:07:32;3.42;;;2.03;;
52926;SDS011;40783;49.710;8.842;2022-07-06T00:10:00;4.75;;;2.10;;
52926;SDS011;40783;49.710;8.842;2022-07-06T00:12:25;6.50;;;1.88;;
52926;SDS011;40783;49.710;8.842;2022-07-06T00:14:53;2.53;;;1.77;;
52926;SDS011;40783;49.710;8.842;2022-07-06T00:17:20;3.75;;;1.67;;
52926;SDS011;40783;49.710;8.842;2022-07-06T00:19:46;2.63;;;1.70;;
52926;SDS011;40783;49.710;8.842;2022-07-06T00:22:13;3.70;;;2.60;;
52926;SDS011;40783;49.710;8.842;2022-07-06T00:24:39;3.30;;;2.15;;
52926;SDS011;40783;49.710;8.842;2022-07-06T00:27:04;3.97;;;1.90;;
52926;SDS011;40783;49.710;8.842;2022-07-06T00:29:30;2.10;;;1.60;;
52926;SDS011;40783;49.710;8.842;2022-07-06T00:31:55;2.17;;;1.98;;
52926;SDS011;40783;49.710;8.842;2022-07-06T00:34:23;4.53;;;2.20;;
52926;SDS011;40783;49.710;8.842;2022-07-06T00:36:51;6.40;;;2.08;;
52926;SDS011;40783;49.710;8.842;2022-07-06T00:39:24;6.93;;;2.92;;
52926;SDS011;40783;49.710;8.842;2022-07-06T00:41:54;3.72;;;1.98;;
52926;SDS011;40783;49.710;8.842;2022-07-06T00:44:26;4.85;;;2.13;;
52926;SDS011;40783;49.710;8.842;2022-07-06T00:46:57;3.72;;;2.22;;
52926;SDS011;40783;49.710;8.842;2022-07-06T00:49:22;4.20;;;1.65;;
52926;SDS011;40783;49.710;8.842;2022-07-06T00:52:06;2.67;;;1.80;;
52926;SDS011;40783;49.710;8.842;2022-07-06T00:54:37;2.85;;;1.80;;
52926;SDS011;40783;49.710;8.842;2022-07-06T00:57:08;3.17;;;1.92;;
52926;SDS011;40783;49.710;8.842;2022-07-06T00:59:36;2.85;;;2.05;;
52926;SDS011;40783;49.710;8.842;2022-07-06T01:02:05;3.08;;;1.90;;
52926;SDS011;40783;49.710;8.842;2022-07-06T01:04:30;3.90;;;2.40;;
52926;SDS011;40783;49.710;8.842;2022-07-06T01:06:56;1.70;;;1.57;;
52926;SDS011;40783;49.710;8.842;2022-07-06T01:11:47;3.55;;;2.22;;
52926;SDS011;40783;49.710;8.842;2022-07-06T01:14:14;6.88;;;2.67;;
52926;SDS011;40783;49.710;8.842;2022-07-06T01:16:40;7.30;;;3.17;;
52926;SDS011;40783;49.710;8.842;2022-07-06T01:19:05;1.85;;;1.65;;
52926;SDS011;40783;49.710;8.842;2022-07-06T01:21:31;2.95;;;1.85;;
52926;SDS011;40783;49.710;8.842;2022-07-06T01:23:56;3.67;;;2.63;;
52926;SDS011;40783;49.710;8.842;2022-07-06T01:26:22;7.40;;;2.50;;
52926;SDS011;40783;49.710;8.842;2022-07-06T01:28:51;6.00;;;2.05;;
52926;SDS011;40783;49.710;8.842;2022-07-06T01:33:45;6.53;;;2.35;;
52926;SDS011;40783;49.710;8.842;2022-07-06T01:36:10;2.90;;;2.30;;
52926;SDS011;40783;49.710;8.842;2022-07-06T01:38:46;3.08;;;2.10;;
52926;SDS011;40783;49.710;8.842;2022-07-06T01:41:17;3.58;;;2.25;;
52926;SDS011;40783;49.710;8.842;2022-07-06T01:43:47;3.75;;;2.28;;
52926;SDS011;40783;49.710;8.842;2022-07-06T01:46:13;2.95;;;2.05;;
52926;SDS011;40783;49.710;8.842;2022-07-06T01:48:38;4.47;;;2.08;;
52926;SDS011;40783;49.710;8.842;2022-07-06T01:51:05;4.13;;;2.15;;
52926;SDS011;40783;49.710;8.842;2022-07-06T01:53:33;4.55;;;2.40;;
52926;SDS011;40783;49.710;8.842;2022-07-06T01:55:59;3.87;;;2.13;;
52926;SDS011;40783;49.710;8.842;2022-07-06T01:58:24;3.53;;;2.00;;
52926;SDS011;40783;49.710;8.842;2022-07-06T02:00:49;5.50;;;3.10;;
52926;SDS011;40783;49.710;8.842;2022-07-06T02:03:15;3.97;;;1.95;;
52926;SDS011;40783;49.710;8.842;2022-07-06T02:05:40;8.57;;;2.10;;
52926;SDS011;40783;49.710;8.842;2022-07-06T02:08:08;2.65;;;2.10;;
52926;SDS011;40783;49.710;8.842;2022-07-06T02:10:33;3.60;;;2.40;;
52926;SDS011;40783;49.710;8.842;2022-07-06T02:13:01;3.65;;;2.40;;
52926;SDS011;40783;49.710;8.842;2022-07-06T02:15:28;3.93;;;2.90;;
52926;SDS011;40783;49.710;8.842;2022-07-06T02:17:54;4.60;;;2.42;;
52926;SDS011;40783;49.710;8.842;2022-07-06T02:20:22;3.83;;;2.07;;
52926;SDS011;40783;49.710;8.842;2022-07-06T02:22:47;5.53;;;2.63;;
52926;SDS011;40783;49.710;8.842;2022-07-06T02:25:12;2.63;;;2.03;;
52926;SDS011;40783;49.710;8.842;2022-07-06T02:27:38;3.90;;;2.30;;
52926;SDS011;40783;49.710;8.842;2022-07-06T02:30:04;4.93;;;1.90;;
52926;SDS011;40783;49.710;8.842;2022-07-06T02:32:30;3.75;;;2.72;;
52926;SDS011;40783;49.710;8.842;2022-07-06T02:34:56;4.07;;;2.73;;
52926;SDS011;40783;49.710;8.842;2022-07-06T02:37:24;3.97;;;2.03;;
52926;SDS011;40783;49.710;8.842;2022-07-06T02:39:51;5.05;;;2.78;;
52926;SDS011;40783;49.710;8.842;2022-07-06T02:42:17;5.37;;;2.40;;
52926;SDS011;40783;49.710;8.842;2022-07-06T02:44:42;6.47;;;2.37;;
52926;SDS011;40783;49.710;8.842;2022-07-06T02:47:07;3.90;;;2.80;;
52926;SDS011;40783;49.710;8.842;2022-07-06T02:49:33;3.63;;;2.17;;
52926;SDS011;40783;49.710;8.842;2022-07-06T02:51:58;6.67;;;3.03;;
52926;SDS011;40783;49.710;8.842;2022-07-06T02:54:24;6.63;;;2.33;;
52926;SDS011;40783;49.710;8.842;2022-07-06T02:56:49;4.43;;;3.27;;
52926;SDS011;40783;49.710;8.842;2022-07-06T02:59:17;5.65;;;2.55;;
52926;SDS011;40783;49.710;8.842;2022-07-06T03:01:42;3.50;;;2.70;;
52926;SDS011;40783;49.710;8.842;2022-07-06T03:04:08;2.90;;;2.10;;
52926;SDS011;40783;49.710;8.842;2022-07-06T03:06:33;3.37;;;2.43;;
52926;SDS011;40783;49.710;8.842;2022-07-06T03:09:02;7.07;;;3.42;;
52926;SDS011;40783;49.710;8.842;2022-07-06T03:13:53;4.90;;;2.88;;
52926;SDS011;40783;49.710;8.842;2022-07-06T03:16:20;4.18;;;2.80;;
52926;SDS011;40783;49.710;8.842;2022-07-06T03:18:48;4.83;;;3.63;;
52926;SDS011;40783;49.710;8.842;2022-07-06T03:21:13;5.93;;;3.42;;
52926;SDS011;40783;49.710;8.842;2022-07-06T03:23:39;4.77;;;2.97;;
52926;SDS011;40783;49.710;8.842;2022-07-06T03:26:07;4.33;;;2.43;;
52926;SDS011;40783;49.710;8.842;2022-07-06T03:28:32;5.20;;;3.40;;
52926;SDS011;40783;49.710;8.842;2022-07-06T03:30:57;8.23;;;3.43;;
52926;SDS011;40783;49.710;8.842;2022-07-06T03:33:23;6.33;;;2.80;;
52926;SDS011;40783;49.710;8.842;2022-07-06T03:35:48;7.70;;;4.17;;
52926;SDS011;40783;49.710;8.842;2022-07-06T03:38:14;5.27;;;3.70;;
52926;SDS011;40783;49.710;8.842;2022-07-06T03:40:39;8.50;;;3.58;;
52926;SDS011;40783;49.710;8.842;2022-07-06T03:43:04;6.73;;;3.33;;
52926;SDS011;40783;49.710;8.842;2022-07-06T03:45:32;16.92;;;3.95;;
52926;SDS011;40783;49.710;8.842;2022-07-06T03:47:57;4.40;;;2.67;;
52926;SDS011;40783;49.710;8.842;2022-07-06T03:50:23;7.67;;;3.77;;
52926;SDS011;40783;49.710;8.842;2022-07-06T03:52:48;4.63;;;3.17;;
52926;SDS011;40783;49.710;8.842;2022-07-06T03:55:13;7.47;;;3.40;;
52926;SDS011;40783;49.710;8.842;2022-07-06T03:57:39;7.10;;;3.77;;
52926;SDS011;40783;49.710;8.842;2022-07-06T04:00:07;6.05;;;3.28;;
52926;SDS011;40783;49.710;8.842;2022-07-06T04:02:34;6.05;;;3.53;;
52926;SDS011;40783;49.710;8.842;2022-07-06T04:04:59;6.60;;;3.20;;
52926;SDS011;40783;49.710;8.842;2022-07-06T04:07:27;10.77;;;4.53;;
52926;SDS011;40783;49.710;8.842;2022-07-06T04:09:52;9.75;;;4.13;;
52926;SDS011;40783;49.710;8.842;2022-07-06T04:12:20;13.80;;;3.67;;
52926;SDS011;40783;49.710;8.842;2022-07-06T04:14:46;4.83;;;3.10;;
52926;SDS011;40783;49.710;8.842;2022-07-06T04:17:14;6.45;;;3.20;;
52926;SDS011;40783;49.710;8.842;2022-07-06T04:19:58;5.00;;;3.55;;
52926;SDS011;40783;49.710;8.842;2022-07-06T04:22:23;6.47;;;2.93;;
52926;SDS011;40783;49.710;8.842;2022-07-06T04:24:53;6.13;;;3.42;;
52926;SDS011;40783;49.710;8.842;2022-07-06T04:27:19;7.83;;;4.00;;
52926;SDS011;40783;49.710;8.842;2022-07-06T04:29:44;5.27;;;3.03;;
52926;SDS011;40783;49.710;8.842;2022-07-06T04:32:10;7.23;;;2.63;;
52926;SDS011;40783;49.710;8.842;2022-07-06T04:34:35;4.90;;;2.70;;
52926;SDS011;40783;49.710;8.842;2022-07-06T04:37:00;8.10;;;4.38;;
52926;SDS011;40783;49.710;8.842;2022-07-06T04:39:26;4.10;;;2.60;;
52926;SDS011;40783;49.710;8.842;2022-07-06T04:41:52;6.43;;;3.67;;
52926;SDS011;40783;49.710;8.842;2022-07-06T04:44:18;6.38;;;3.55;;
52926;SDS011;40783;49.710;8.842;2022-07-06T04:46:43;6.30;;;3.53;;
52926;SDS011;40783;49.710;8.842;2022-07-06T04:49:11;5.85;;;3.55;;
52926;SDS011;40783;49.710;8.842;2022-07-06T04:51:36;6.30;;;2.97;;
52926;SDS011;40783;49.710;8.842;2022-07-06T04:54:04;3.10;;;2.10;;
52926;SDS011;40783;49.710;8.842;2022-07-06T04:56:32;5.20;;;2.83;;
52926;SDS011;40783;49.710;8.842;2022-07-06T04:58:57;6.53;;;3.20;;
52926;SDS011;40783;49.710;8.842;2022-07-06T05:01:22;5.03;;;2.63;;
52926;SDS011;40783;49.710;8.842;2022-07-06T05:03:48;5.83;;;2.80;;
52926;SDS011;40783;49.710;8.842;2022-07-06T05:06:13;3.77;;;2.57;;
52926;SDS011;40783;49.710;8.842;2022-07-06T05:08:42;14.20;;;3.45;;
52926;SDS011;40783;49.710;8.842;2022-07-06T05:11:07;4.00;;;2.80;;
52926;SDS011;40783;49.710;8.842;2022-07-06T05:13:35;6.47;;;3.30;;
52926;SDS011;40783;49.710;8.842;2022-07-06T05:16:03;7.22;;;3.28;;
52926;SDS011;40783;49.710;8.842;2022-07-06T05:18:31;6.32;;;3.33;;
52926;SDS011;40783;49.710;8.842;2022-07-06T05:20:59;3.22;;;2.42;;
52926;SDS011;40783;49.710;8.842;2022-07-06T05:23:25;3.73;;;2.30;;
52926;SDS011;40783;49.710;8.842;2022-07-06T05:25:51;3.38;;;2.47;;
52926;SDS011;40783;49.710;8.842;2022-07-06T05:28:19;4.00;;;1.73;;
52926;SDS011;40783;49.710;8.842;2022-07-06T05:30:45;2.17;;;1.85;;
52926;SDS011;40783;49.710;8.842;2022-07-06T05:33:13;5.40;;;2.40;;
52926;SDS011;40783;49.710;8.842;2022-07-06T05:35:43;3.08;;;2.10;;
52926;SDS011;40783;49.710;8.842;2022-07-06T05:38:08;5.30;;;1.80;;
52926;SDS011;40783;49.710;8.842;2022-07-06T05:45:27;2.45;;;1.75;;
52926;SDS011;40783;49.710;8.842;2022-07-06T05:47:52;3.35;;;2.22;;
52926;SDS011;40783;49.710;8.842;2022-07-06T05:50:36;2.33;;;1.77;;
52926;SDS011;40783;49.710;8.842;2022-07-06T05:53:02;3.45;;;2.33;;
52926;SDS011;40783;49.710;8.842;2022-07-06T05:55:29;2.80;;;1.67;;
52926;SDS011;40783;49.710;8.842;2022-07-06T05:57:54;3.58;;;2.22;;
52926;SDS011;40783;49.710;8.842;2022-07-06T06:00:25;4.55;;;2.53;;
52926;SDS011;40783;49.710;8.842;2022-07-06T06:02:52;2.72;;;1.63;;
52926;SDS011;40783;49.710;8.842;2022-07-06T06:05:23;4.38;;;1.73;;
52926;SDS011;40783;49.710;8.842;2022-07-06T06:07:51;4.13;;;2.22;;
52926;SDS011;40783;49.710;8.842;2022-07-06T06:10:19;3.38;;;1.90;;
52926;SDS011;40783;49.710;8.842;2022-07-06T06:12:46;2.97;;;1.67;;
52926;SDS011;40783;49.710;8.842;2022-07-06T06:15:12;5.03;;;2.70;;
52926;SDS011;40783;49.710;8.842;2022-07-06T06:17:41;2.53;;;1.80;;
52926;SDS011;40783;49.710;8.842;2022-07-06T06:20:08;2.53;;;1.77;;
52926;SDS011;40783;49.710;8.842;2022-07-06T06:22:52;5.30;;;2.20;;
52926;SDS011;40783;49.710;8.842;2022-07-06T06:25:31;2.83;;;2.20;;
52926;SDS011;40783;49.710;8.842;2022-07-06T06:27:59;4.32;;;2.28;;
52926;SDS011;40783;49.710;8.842;2022-07-06T06:30:25;11.90;;;2.83;;
52926;SDS011;40783;49.710;8.842;2022-07-06T06:32:51;2.20;;;1.60;;
52926;SDS011;40783;49.710;8.842;2022-07-06T06:35:19;3.35;;;1.98;;
52926;SDS011;40783;49.710;8.842;2022-07-06T06:37:47;3.17;;;2.28;;
52926;SDS011;40783;49.710;8.842;2022-07-06T06:40:15;6.28;;;2.25;;
52926;SDS011;40783;49.710;8.842;2022-07-06T06:42:40;4.10;;;1.77;;
52926;SDS011;40783;49.710;8.842;2022-07-06T06:45:06;4.68;;;2.63;;
52926;SDS011;40783;49.710;8.842;2022-07-06T06:47:32;10.57;;;2.08;;
52926;SDS011;40783;49.710;8.842;2022-07-06T06:49:57;5.22;;;2.53;;
52926;SDS011;40783;49.710;8.842;2022-07-06T06:52:25;4.43;;;2.10;;
52926;SDS011;40783;49.710;8.842;2022-07-06T06:54:50;3.80;;;2.15;;
52926;SDS011;40783;49.710;8.842;2022-07-06T06:57:15;2.40;;;1.80;;
52926;SDS011;40783;49.710;8.842;2022-07-06T06:59:41;4.93;;;2.25;;
52926;SDS011;40783;49.710;8.842;2022-07-06T07:02:06;4.45;;;2.22;;
52926;SDS011;40783;49.710;8.842;2022-07-06T07:04:34;4.22;;;2.47;;
52926;SDS011;40783;49.710;8.842;2022-07-06T07:07:04;3.28;;;2.00;;
52926;SDS011;40783;49.710;8.842;2022-07-06T07:09:30;3.05;;;2.13;;
52926;SDS011;40783;49.710;8.842;2022-07-06T07:11:55;2.22;;;1.77;;
52926;SDS011;40783;49.710;8.842;2022-07-06T07:14:21;2.80;;;2.00;;
52926;SDS011;40783;49.710;8.842;2022-07-06T07:16:46;2.25;;;1.80;;
52926;SDS011;40783;49.710;8.842;2022-07-06T07:19:14;4.18;;;1.92;;
52926;SDS011;40783;49.710;8.842;2022-07-06T07:21:39;7.82;;;2.30;;
52926;SDS011;40783;49.710;8.842;2022-07-06T07:24:05;2.38;;;1.83;;
52926;SDS011;40783;49.710;8.842;2022-07-06T07:26:33;5.38;;;2.50;;
52926;SDS011;40783;49.710;8.842;2022-07-06T07:29:00;2.28;;;1.30;;
52926;SDS011;40783;49.710;8.842;2022-07-06T07:31:26;4.30;;;2.25;;
52926;SDS011;40783;49.710;8.842;2022-07-06T07:33:51;4.72;;;2.22;;
52926;SDS011;40783;49.710;8.842;2022-07-06T07:36:21;6.70;;;1.83;;
52926;SDS011;40783;49.710;8.842;2022-07-06T07:38:50;4.47;;;2.28;;
52926;SDS011;40783;49.710;8.842;2022-07-06T07:41:18;4.20;;;2.25;;
52926;SDS011;40783;49.710;8.842;2022-07-06T07:43:46;2.90;;;1.85;;
52926;SDS011;40783;49.710;8.842;2022-07-06T07:46:14;3.97;;;2.58;;
52926;SDS011;40783;49.710;8.842;2022-07-06T07:48:41;5.40;;;3.00;;
52926;SDS011;40783;49.710;8.842;2022-07-06T07:51:09;6.70;;;1.83;;
52926;SDS011;40783;49.710;8.842;2022-07-06T07:53:34;3.78;;;2.28;;
52926;SDS011;40783;49.710;8.842;2022-07-06T07:58:27;3.78;;;2.03;;
52926;SDS011;40783;49.710;8.842;2022-07-06T08:03:19;3.55;;;1.65;;
52926;SDS011;40783;49.710;8.842;2022-07-06T08:08:13;3.17;;;2.17;;
52926;SDS011;40783;49.710;8.842;2022-07-06T08:10:39;3.28;;;1.85;;
52926;SDS011;40783;49.710;8.842;2022-07-06T08:15:32;4.82;;;2.65;;
52926;SDS011;40783;49.710;8.842;2022-07-06T08:20:23;2.73;;;1.80;;
52926;SDS011;40783;49.710;8.842;2022-07-06T08:25:13;3.83;;;2.38;;
52926;SDS011;40783;49.710;8.842;2022-07-06T08:30:06;4.03;;;2.30;;
52926;SDS011;40783;49.710;8.842;2022-07-06T08:34:57;4.20;;;2.00;;
52926;SDS011;40783;49.710;8.842;2022-07-06T08:39:50;3.80;;;1.98;;
52926;SDS011;40783;49.710;8.842;2022-07-06T08:44:43;5.07;;;2.67;;
52926;SDS011;40783;49.710;8.842;2022-07-06T08:47:10;5.68;;;2.35;;
52926;SDS011;40783;49.710;8.842;2022-07-06T08:52:06;7.88;;;3.00;;
52926;SDS011;40783;49.710;8.842;2022-07-06T08:54:35;4.45;;;2.30;;
52926;SDS011;40783;49.710;8.842;2022-07-06T08:57:02;4.50;;;2.50;;
52926;SDS011;40783;49.710;8.842;2022-07-06T08:59:31;6.95;;;3.03;;
52926;SDS011;40783;49.710;8.842;2022-07-06T09:01:59;7.95;;;3.42;;
52926;SDS011;40783;49.710;8.842;2022-07-06T09:04:25;4.72;;;2.40;;
52926;SDS011;40783;49.710;8.842;2022-07-06T09:09:21;6.28;;;3.28;;
52926;SDS011;40783;49.710;8.842;2022-07-06T09:11:48;7.88;;;2.92;;
52926;SDS011;40783;49.710;8.842;2022-07-06T09:16:40;4.72;;;2.83;;
52926;SDS011;40783;49.710;8.842;2022-07-06T09:19:08;5.03;;;3.17;;
52926;SDS011;40783;49.710;8.842;2022-07-06T09:21:36;5.40;;;2.60;;
52926;SDS011;40783;49.710;8.842;2022-07-06T09:24:04;3.83;;;2.67;;
52926;SDS011;40783;49.710;8.842;2022-07-06T09:26:33;5.90;;;2.75;;
52926;SDS011;40783;49.710;8.842;2022-07-06T09:28:59;6.50;;;3.38;;
52926;SDS011;40783;49.710;8.842;2022-07-06T09:31:27;4.30;;;2.75;;
52926;SDS011;40783;49.710;8.842;2022-07-06T09:33:59;6.70;;;2.88;;
52926;SDS011;40783;49.710;8.842;2022-07-06T09:39:27;3.72;;;2.53;;
52926;SDS011;40783;49.710;8.842;2022-07-06T09:41:57;8.80;;;2.70;;
52926;SDS011;40783;49.710;8.842;2022-07-06T09:44:28;6.30;;;3.88;;
52926;SDS011;40783;49.710;8.842;2022-07-06T09:46:56;4.90;;;3.15;;
52926;SDS011;40783;49.710;8.842;2022-07-06T09:49:25;6.55;;;3.33;;
52926;SDS011;40783;49.710;8.842;2022-07-06T09:51:58;14.93;;;3.58;;
52926;SDS011;40783;49.710;8.842;2022-07-06T09:54:28;8.98;;;3.30;;
52926;SDS011;40783;49.710;8.842;2022-07-06T09:56:54;8.85;;;4.32;;
52926;SDS011;40783;49.710;8.842;2022-07-06T09:59:24;7.63;;;3.95;;
52926;SDS011;40783;49.710;8.842;2022-07-06T10:01:56;6.20;;;3.00;;
52926;SDS011;40783;49.710;8.842;2022-07-06T10:04:26;4.80;;;3.22;;
52926;SDS011;40783;49.710;8.842;2022-07-06T10:06:56;7.10;;;3.47;;
52926;SDS011;40783;49.710;8.842;2022-07-06T10:09:24;5.07;;;3.22;;
52926;SDS011;40783;49.710;8.842;2022-07-06T10:11:52;5.32;;;3.05;;
52926;SDS011;40783;49.710;8.842;2022-07-06T10:14:28;4.72;;;3.45;;
52926;SDS011;40783;49.710;8.842;2022-07-06T10:16:59;7.32;;;3.47;;
52926;SDS011;40783;49.710;8.842;2022-07-06T10:19:29;8.98;;;3.40;;
52926;SDS011;40783;49.710;8.842;2022-07-06T10:21:58;7.82;;;3.45;;
52926;SDS011;40783;49.710;8.842;2022-07-06T10:24:28;8.77;;;3.13;;
52926;SDS011;40783;49.710;8.842;2022-07-06T10:26:54;6.63;;;3.53;;
52926;SDS011;40783;49.710;8.842;2022-07-06T10:29:23;6.18;;;2.90;;
52926;SDS011;40783;49.710;8.842;2022-07-06T10:31:49;5.65;;;3.22;;
52926;SDS011;40783;49.710;8.842;2022-07-06T10:34:17;6.00;;;3.08;;
52926;SDS011;40783;49.710;8.842;2022-07-06T10:36:48;5.00;;;3.08;;
52926;SDS011;40783;49.710;8.842;2022-07-06T10:39:15;11.43;;;3.05;;
52926;SDS011;40783;49.710;8.842;2022-07-06T10:41:59;4.45;;;2.60;;
52926;SDS011;40783;49.710;8.842;2022-07-06T10:44:27;4.22;;;2.47;;
52926;SDS011;40783;49.710;8.842;2022-07-06T10:46:53;3.80;;;2.33;;
52926;SDS011;40783;49.710;8.842;2022-07-06T10:49:20;6.80;;;2.80;;
52926;SDS011;40783;49.710;8.842;2022-07-06T10:51:49;4.32;;;2.53;;
52926;SDS011;40783;49.710;8.842;2022-07-06T10:54:15;8.85;;;4.00;;
52926;SDS011;40783;49.710;8.842;2022-07-06T10:56:45;10.52;;;2.65;;
52926;SDS011;40783;49.710;8.842;2022-07-06T10:59:13;3.83;;;2.55;;
52926;SDS011;40783;49.710;8.842;2022-07-06T11:01:40;4.00;;;2.20;;
52926;SDS011;40783;49.710;8.842;2022-07-06T11:04:31;5.78;;;2.45;;
52926;SDS011;40783;49.710;8.842;2022-07-06T11:06:59;5.20;;;2.45;;
52926;SDS011;40783;49.710;8.842;2022-07-06T11:09:33;2.90;;;2.10;;
52926;SDS011;40783;49.710;8.842;2022-07-06T11:12:00;6.13;;;2.40;;
52926;SDS011;40783;49.710;8.842;2022-07-06T11:14:41;4.93;;;2.85;;
52926;SDS011;40783;49.710;8.842;2022-07-06T11:17:09;4.70;;;2.05;;
52926;SDS011;40783;49.710;8.842;2022-07-06T11:19:35;4.03;;;2.92;;
52926;SDS011;40783;49.710;8.842;2022-07-06T11:24:38;3.05;;;2.03;;
52926;SDS011;40783;49.710;8.842;2022-07-06T11:27:05;3.08;;;1.88;;
52926;SDS011;40783;49.710;8.842;2022-07-06T11:29:34;2.25;;;2.00;;
52926;SDS011;40783;49.710;8.842;2022-07-06T11:32:04;4.70;;;2.20;;
52926;SDS011;40783;49.710;8.842;2022-07-06T11:34:39;3.85;;;2.05;;
52926;SDS011;40783;49.710;8.842;2022-07-06T11:37:12;5.65;;;1.73;;
52926;SDS011;40783;49.710;8.842;2022-07-06T11:39:40;8.68;;;2.67;;
52926;SDS011;40783;49.710;8.842;2022-07-06T11:42:10;3.22;;;2.03;;
52926;SDS011;40783;49.710;8.842;2022-07-06T11:44:37;4.32;;;1.77;;
52926;SDS011;40783;49.710;8.842;2022-07-06T11:47:06;4.72;;;2.95;;
52926;SDS011;40783;49.710;8.842;2022-07-06T11:49:35;4.05;;;2.05;;
52926;SDS011;40783;49.710;8.842;2022-07-06T11:52:10;1.95;;;1.75;;
52926;SDS011;40783;49.710;8.842;2022-07-06T11:54:38;3.05;;;1.92;;
52926;SDS011;40783;49.710;8.842;2022-07-06T11:57:08;6.95;;;3.72;;
52926;SDS011;40783;49.710;8.842;2022-07-06T11:59:36;4.30;;;2.60;;
52926;SDS011;40783;49.710;8.842;2022-07-06T12:04:31;3.25;;;1.75;;
52926;SDS011;40783;49.710;8.842;2022-07-06T12:07:04;2.28;;;1.58;;
52926;SDS011;40783;49.710;8.842;2022-07-06T12:09:34;2.70;;;1.73;;
52926;SDS011;40783;49.710;8.842;2022-07-06T12:12:05;2.03;;;1.35;;
52926;SDS011;40783;49.710;8.842;2022-07-06T12:14:32;6.70;;;1.70;;
52926;SDS011;40783;49.710;8.842;2022-07-06T12:17:05;2.58;;;1.45;;
52926;SDS011;40783;49.710;8.842;2022-07-06T12:19:32;3.20;;;1.65;;
52926;SDS011;40783;49.710;8.842;2022-07-06T12:21:58;3.78;;;2.03;;
52926;SDS011;40783;49.710;8.842;2022-07-06T12:24:28;2.20;;;1.40;;
52926;SDS011;40783;49.710;8.842;2022-07-06T12:26:57;1.92;;;1.30;;
52926;SDS011;40783;49.710;8.842;2022-07-06T12:29:24;3.10;;;1.77;;
52926;SDS011;40783;49.710;8.842;2022-07-06T12:31:51;11.63;;;1.70;;
52926;SDS011;40783;49.710;8.842;2022-07-06T12:34:20;2.63;;;1.33;;
52926;SDS011;40783;49.710;8.842;2022-07-06T12:36:47;2.28;;;1.40;;
52926;SDS011;40783;49.710;8.842;2022-07-06T12:39:14;2.03;;;1.60;;
52926;SDS011;40783;49.710;8.842;2022-07-06T12:41:46;3.85;;;1.65;;
52926;SDS011;40783;49.710;8.842;2022-07-06T12:44:18;2.80;;;1.30;;
52926;SDS011;40783;49.710;8.842;2022-07-06T12:46:47;4.28;;;1.60;;
52926;SDS011;40783;49.710;8.842;2022-07-06T12:49:22;3.65;;;1.45;;
52926;SDS011;40783;49.710;8.842;2022-07-06T12:51:52;10.20;;;2.40;;
52926;SDS011;40783;49.710;8.842;2022-07-06T12:54:33;2.67;;;1.58;;
52926;SDS011;40783;49.710;8.842;2022-07-06T12:57:14;1.88;;;1.40;;
52926;SDS011;40783;49.710;8.842;2022-07-06T13:02:21;2.47;;;1.55;;
52926;SDS011;40783;49.710;8.842;2022-07-06T13:04:58;1.33;;;1.08;;
52926;SDS011;40783;49.710;8.842;2022-07-06T13:07:26;2.55;;;1.40;;
52926;SDS011;40783;49.710;8.842;2022-07-06T13:09:54;2.05;;;1.33;;
52926;SDS011;40783;49.710;8.842;2022-07-06T13:12:20;7.00;;;1.73;;
52926;SDS011;40783;49.710;8.842;2022-07-06T13:14:48;2.85;;;1.80;;
52926;SDS011;40783;49.710;8.842;2022-07-06T13:17:16;2.58;;;1.60;;
52926;SDS011;40783;49.710;8.842;2022-07-06T13:19:42;3.10;;;1.45;;
52926;SDS011;40783;49.710;8.842;2022-07-06T13:22:10;1.90;;;1.48;;
52926;SDS011;40783;49.710;8.842;2022-07-06T13:24:35;4.47;;;2.15;;
52926;SDS011;40783;49.710;8.842;2022-07-06T13:27:01;4.28;;;1.98;;
52926;SDS011;40783;49.710;8.842;2022-07-06T13:29:29;6.03;;;1.83;;
52926;SDS011;40783;49.710;8.842;2022-07-06T13:31:57;3.20;;;1.95;;
52926;SDS011;40783;49.710;8.842;2022-07-06T13:34:25;1.95;;;1.38;;
52926;SDS011;40783;49.710;8.842;2022-07-06T13:36:55;3.80;;;2.00;;
52926;SDS011;40783;49.710;8.842;2022-07-06T13:39:23;3.90;;;2.45;;
52926;SDS011;40783;49.710;8.842;2022-07-06T13:41:52;6.28;;;2.67;;
52926;SDS011;40783;49.710;8.842;2022-07-06T13:44:18;4.90;;;2.70;;
52926;SDS011;40783;49.710;8.842;2022-07-06T13:46:46;2.40;;;1.70;;
52926;SDS011;40783;49.710;8.842;2022-07-06T13:49:12;4.78;;;2.67;;
52926;SDS011;40783;49.710;8.842;2022-07-06T13:51:37;7.38;;;2.65;;
52926;SDS011;40783;49.710;8.842;2022-07-06T13:54:03;3.38;;;2.28;;
52926;SDS011;40783;49.710;8.842;2022-07-06T13:56:31;10.93;;;2.83;;
52926;SDS011;40783;49.710;8.842;2022-07-06T13:58:57;3.85;;;2.15;;
52926;SDS011;40783;49.710;8.842;2022-07-06T14:03:50;4.57;;;2.50;;
52926;SDS011;40783;49.710;8.842;2022-07-06T14:06:15;5.80;;;2.20;;
52926;SDS011;40783;49.710;8.842;2022-07-06T14:08:42;4.50;;;2.50;;
52926;SDS011;40783;49.710;8.842;2022-07-06T14:11:08;4.60;;;2.30;;
52926;SDS011;40783;49.710;8.842;2022-07-06T14:13:35;4.63;;;2.35;;
52926;SDS011;40783;49.710;8.842;2022-07-06T14:16:04;5.10;;;2.88;;
52926;SDS011;40783;49.710;8.842;2022-07-06T14:18:30;3.63;;;2.35;;
52926;SDS011;40783;49.710;8.842;2022-07-06T14:21:00;3.72;;;2.58;;
52926;SDS011;40783;49.710;8.842;2022-07-06T14:23:26;3.25;;;1.92;;
52926;SDS011;40783;49.710;8.842;2022-07-06T14:25:54;5.05;;;1.90;;
52926;SDS011;40783;49.710;8.842;2022-07-06T14:28:22;5.55;;;2.25;;
52926;SDS011;40783;49.710;8.842;2022-07-06T14:30:48;8.02;;;1.98;;
52926;SDS011;40783;49.710;8.842;2022-07-06T14:33:18;5.70;;;1.85;;
52926;SDS011;40783;49.710;8.842;2022-07-06T14:35:45;3.63;;;1.50;;
52926;SDS011;40783;49.710;8.842;2022-07-06T14:38:13;10.52;;;1.85;;
52926;SDS011;40783;49.710;8.842;2022-07-06T14:40:39;1.65;;;1.40;;
52926;SDS011;40783;49.710;8.842;2022-07-06T14:43:09;1.92;;;1.50;;
52926;SDS011;40783;49.710;8.842;2022-07-06T14:45:35;3.63;;;1.38;;
52926;SDS011;40783;49.710;8.842;2022-07-06T14:48:00;2.00;;;1.45;;
52926;SDS011;40783;49.710;8.842;2022-07-06T14:50:26;5.97;;;2.17;;
52926;SDS011;40783;49.710;8.842;2022-07-06T14:52:52;3.72;;;1.23;;
52926;SDS011;40783;49.710;8.842;2022-07-06T14:55:20;3.50;;;2.00;;
52926;SDS011;40783;49.710;8.842;2022-07-06T14:57:47;6.88;;;1.88;;
52926;SDS011;40783;49.710;8.842;2022-07-06T15:00:13;2.20;;;1.40;;
52926;SDS011;40783;49.710;8.842;2022-07-06T15:02:41;10.07;;;1.90;;
52926;SDS011;40783;49.710;8.842;2022-07-06T15:05:08;5.88;;;1.88;;
52926;SDS011;40783;49.710;8.842;2022-07-06T15:07:37;4.13;;;1.90;;
52926;SDS011;40783;49.710;8.842;2022-07-06T15:10:03;4.07;;;2.03;;
52926;SDS011;40783;49.710;8.842;2022-07-06T15:12:29;2.97;;;2.00;;
52926;SDS011;40783;49.710;8.842;2022-07-06T15:14:54;3.00;;;1.92;;
52926;SDS011;40783;49.710;8.842;2022-07-06T15:17:24;2.95;;;1.35;;
52926;SDS011;40783;49.710;8.842;2022-07-06T15:19:53;2.00;;;1.52;;
52926;SDS011;40783;49.710;8.842;2022-07-06T15:22:19;3.40;;;1.70;;
52926;SDS011;40783;49.710;8.842;2022-07-06T15:24:46;6.25;;;2.05;;
52926;SDS011;40783;49.710;8.842;2022-07-06T15:27:14;4.45;;;1.73;;
52926;SDS011;40783;49.710;8.842;2022-07-06T15:29:39;5.20;;;1.70;;
52926;SDS011;40783;49.710;8.842;2022-07-06T15:32:05;3.53;;;2.05;;
52926;SDS011;40783;49.710;8.842;2022-07-06T15:34:31;1.90;;;1.50;;
52926;SDS011;40783;49.710;8.842;2022-07-06T15:36:59;3.03;;;2.20;;
52926;SDS011;40783;49.710;8.842;2022-07-06T15:39:28;4.07;;;1.98;;
52926;SDS011;40783;49.710;8.842;2022-07-06T15:41:53;3.50;;;2.03;;
52926;SDS011;40783;49.710;8.842;2022-07-06T15:46:49;3.03;;;1.63;;
52926;SDS011;40783;49.710;8.842;2022-07-06T15:49:21;3.40;;;1.75;;
52926;SDS011;40783;49.710;8.842;2022-07-06T15:51:46;1.40;;;1.30;;